Flight Track Log - Related Links

Times and Time Zones

All times are in EDT time to prevent confusion due to time zone crossing. See the ASQ6115 flight status page for this flight to view local times or setup timezone preferences in your user account.

Time Position Orientation Groundspeed Altitude Reporting Facility
EDT Latitude Longitude Course Direction KTS MPH feet Rate Location/Type
Sun 08:55:11 AM 41.4194 -81.8375 105° East 158 182 1,700  Level Cleveland Center
Sun 08:55:41 AM 41.4447 -81.8186 29° Northeast 187 215 2,800 1,648 Climbing Cleveland Center
Sun 08:56:42 AM 41.5033 -81.7781 27° Northeast 282 325 4,200 2,122 Climbing Cleveland Center
Sun 08:58:08 AM 41.5897 -81.6881 38° Northeast 304 350 8,000 2,384 Climbing Cleveland Center
Sun 08:59:00 AM 41.7832 -81.4669 37° Northeast  Level FlightAware Approximate
Sun 08:59:08 AM 41.6489 -81.6253 38° Northeast 286 329 10,000  Level Cleveland Center
Sun 09:00:00 AM 41.8311 -81.3720 105° East  Level FlightAware Approximate
Sun 09:00:08 AM 41.7161 -81.5511 39° Northeast 285 328 11,300  Level Cleveland Center
Sun 09:01:08 AM 41.7792 -81.4825 39° Northeast 306 352 13,200 1,850 Climbing Cleveland Center
Sun 09:02:08 AM 41.8300 -81.3828 56° Northeast 312 359 15,000 1,600 Climbing Cleveland Center
Sun 09:03:08 AM 41.8164 -81.2489 98° East 343 395 16,400 1,500 Climbing Cleveland Center
Sun 09:04:08 AM 41.8025 -81.1153 98° East 358 412 18,000 1,500 Climbing Cleveland Center
Sun 09:05:08 AM 41.7842 -80.9731 100° East 374 430 19,400 1,450 Climbing Cleveland Center
Sun 09:06:08 AM 41.7658 -80.8197 99° East 374 430 20,900 1,450 Climbing Cleveland Center
Sun 09:07:08 AM 41.7431 -80.6750 102° East 380 437 22,300 1,350 Climbing Cleveland Center
Sun 09:08:08 AM 41.7139 -80.5331 105° East 396 456 23,600 1,150 Climbing Cleveland Center
Sun 09:09:08 AM 41.6575 -80.4108 122° Southeast 380 437 24,600 1,050 Climbing Cleveland Center
Sun 09:10:08 AM 41.5742 -80.3222 141° Southeast 380 437 25,700 1,100 Climbing Cleveland Center
Sun 09:11:08 AM 41.4842 -80.2339 144° Southeast 391 450 26,800 1,000 Climbing Cleveland Center
Sun 09:12:08 AM 41.3922 -80.1486 145° Southeast 401 461 27,700 850 Climbing Cleveland Center
Sun 09:13:08 AM 41.2981 -80.0581 144° Southeast 411 473 28,500 650 Climbing Cleveland Center
Sun 09:14:08 AM 41.2369 -79.9453 126° Southeast 411 473 29,000 250 Climbing Cleveland Center
Sun 09:15:08 AM 41.2339 -79.7769 91° East 395 455 29,000  Level Cleveland Center
Sun 09:16:08 AM 41.2386 -79.5892 88° East 424 488 29,000  Level Cleveland Center
Sun 09:17:08 AM 41.2411 -79.4206 89° East 436 502 29,000  Level Cleveland Center
Sun 09:18:08 AM 41.2397 -79.2797 91° East 441 507 29,000  Level Cleveland Center
Sun 09:19:08 AM 41.2356 -79.1114 92° East 441 507 29,000  Level Cleveland Center
Sun 09:20:08 AM 41.2328 -78.9181 91° East 462 532 29,000  Level Cleveland Center
Sun 09:21:08 AM 41.2303 -78.7417 91° East 468 539 29,000  Level Cleveland Center
Sun 09:22:08 AM 41.2272 -78.5594 91° East 479 551 29,000  Level Cleveland Center
Sun 09:23:30 AM 41.2192 -78.3156 92° East 483 556 29,000  Level New York Center
Sun 09:24:31 AM 41.2117 -78.1353 93° East 483 556 29,000  Level New York Center
Sun 09:25:32 AM 41.1914 -77.9567 99° East 483 556 29,000  Level New York Center
Sun 09:26:32 AM 41.1686 -77.7778 100° East 490 564 29,000  Level New York Center
Sun 09:27:33 AM 41.1458 -77.5989 100° East 490 564 29,000 -356 Level New York Center
Sun 09:28:30 AM 41.1231 -77.4147 99° East 490 564 28,300 -915 Descending New York Center
Sun 09:29:31 AM 41.1006 -77.2531 100° East 490 564 27,200 -1,131 Descending New York Center
Sun 09:30:32 AM 41.0767 -77.0800 100° East 485 558 26,000 -1,311 Descending New York Center
Sun 09:31:30 AM 41.0547 -76.9044 99° East 485 558 24,600 -1,475 Descending New York Center
Sun 09:32:30 AM 41.0317 -76.7428 101° East 467 537 23,100 -1,488 Descending New York Center
Sun 09:33:31 AM 41.0000 -76.5833 105° East 454 522 21,600 -1,672 Descending New York Center
Sun 09:34:32 AM 40.9633 -76.4344 108° East 443 510 19,700 -1,736 Descending New York Center
Sun 09:35:32 AM 40.9289 -76.2806 106° East 402 463 18,100 -850 Descending New York Center
Sun 09:36:32 AM 40.8958 -76.1433 108° East 389 448 18,000 -508 Descending New York Center
Sun 09:37:30 AM 40.8622 -76.0061 108° East 389 448 17,100 -1,765 Descending New York Center
Sun 09:38:31 AM 40.8306 -75.8750 108° East 389 448 14,500 -2,016 Descending New York Center
Sun 09:39:32 AM 40.7986 -75.7464 108° East 383 441 13,000 -750 Descending New York Center
Sun 09:40:31 AM 40.7717 -75.6375 108° East 359 413 13,000  Level New York Center
Sun 09:41:32 AM 40.7414 -75.5122 108° East 354 407 13,000  Level New York Center
Sun 09:42:33 AM 40.7111 -75.3842 107° East 354 407 13,000 -356 Level New York Center
Sun 09:43:30 AM 40.6869 -75.2567 104° East 354 407 12,300 -1,231 Descending New York Center
Sun 09:44:30 AM 40.6539 -75.1342 110° East 354 407 10,600 -1,131 Descending New York Center
Sun 09:45:32 AM 40.5808 -75.0256 132° Southeast 352 405 10,000 -298 Descending New York Center
Sun 09:46:31 AM 40.5389 -74.9111 116° Southeast 347 399 10,000  Level New York Center
Sun 09:47:22 AM 40.5000 -74.8000 115° Southeast 328 377 10,000  Level New York TRACON
Sun 09:48:22 AM 40.4667 -74.7000 114° Southeast 316 364 10,000 -350 Level New York TRACON
Sun 09:49:22 AM 40.4500 -74.6000 102° East 311 358 9,300 -950 Descending New York TRACON
Sun 09:50:22 AM 40.4167 -74.4833 111° Southeast 305 351 8,100 -750 Descending New York TRACON
Sun 09:51:22 AM 40.4167 -74.3833 90° East 292 336 7,800 -550 Descending New York TRACON
Sun 09:52:22 AM 40.4333 -74.2833 78° East 294 338 7,000 -421 Descending New York TRACON
Sun 09:53:16 AM 40.4500 -74.2000 75° East 289 333 7,000 -550 Level New York TRACON
Sun 09:54:22 AM 40.5167 -74.1167 44° Northeast 268 308 5,900 -1,524 Descending New York TRACON
Sun 09:55:22 AM 40.5667 -74.0500 45° Northeast 265 305 3,800 -1,450 Descending New York TRACON
Sun 09:56:22 AM 40.6333 -74.0000 30° Northeast 254 292 3,000 -900 Descending New York TRACON
Sun 09:57:22 AM 40.6833 -73.9667 27° Northeast 203 234 2,000 -1,000 Descending New York TRACON

Login

Don't have an account? Register now (free) for customized features, flight alerts, and more!